createdAt,value
2023-05-17T00:02:20.958Z,69.10
2023-05-17T00:06:41.182Z,69.60
2023-05-17T00:10:58.695Z,69.90
2023-05-17T00:15:17.264Z,70.10
2023-05-17T00:19:36.291Z,70.40
2023-05-17T00:23:56.196Z,70.80
2023-05-17T00:28:16.503Z,71.10
2023-05-17T00:32:35.219Z,71.50
2023-05-17T00:36:54.839Z,71.80
2023-05-17T00:41:14.346Z,72.20
2023-05-17T00:45:32.439Z,72.50
2023-05-17T00:49:50.493Z,72.70
2023-05-17T00:54:10.336Z,73.00
2023-05-17T00:58:29.678Z,73.40
2023-05-17T01:02:48.919Z,73.70
2023-05-17T01:07:09.860Z,74.10
2023-05-17T01:11:46.770Z,74.50
2023-05-17T01:16:12.314Z,75.00
2023-05-17T01:20:38.053Z,75.50
2023-05-17T01:25:12.762Z,76.00
2023-05-17T01:29:36.600Z,76.60
2023-05-17T01:33:59.042Z,77.20
2023-05-17T01:38:19.696Z,77.80
2023-05-17T01:42:41.149Z,78.40
2023-05-17T01:47:06.569Z,79.10
2023-05-17T01:51:34.638Z,79.80
2023-05-17T01:56:01.379Z,80.40
2023-05-17T02:00:25.902Z,81.10
2023-05-17T02:04:46.399Z,81.70
2023-05-17T02:09:06.253Z,82.40
2023-05-17T02:13:24.201Z,82.90
2023-05-17T02:17:42.519Z,83.60
2023-05-17T02:22:02.002Z,84.50
2023-05-17T02:26:21.463Z,85.50
2023-05-17T02:30:41.990Z,86.40
2023-05-17T02:35:00.713Z,87.40
2023-05-17T02:39:19.969Z,88.60
2023-05-17T02:43:39.822Z,89.80
2023-05-17T02:47:57.746Z,90.40
2023-05-17T02:52:16.391Z,90.80
2023-05-17T02:56:38.423Z,91.30
2023-05-17T03:00:58.096Z,91.80
2023-05-17T03:05:16.578Z,92.30
2023-05-17T03:09:42.104Z,92.70
2023-05-17T03:14:03.490Z,93.00
2023-05-17T03:18:22.843Z,93.50
2023-05-17T03:22:40.696Z,93.80
2023-05-17T03:26:58.761Z,94.30
2023-05-17T03:31:19.031Z,94.80
2023-05-17T03:35:38.277Z,95.30
2023-05-17T03:39:55.997Z,95.80
2023-05-17T03:44:13.973Z,96.30
2023-05-17T03:48:35.976Z,96.70
2023-05-17T03:52:56.315Z,96.90
2023-05-17T03:57:14.442Z,97.20
2023-05-17T04:01:32.409Z,97.50
2023-05-17T04:05:51.793Z,98.10
2023-05-17T04:10:12.299Z,99.50
2023-05-17T04:14:30.263Z,99.90
2023-05-17T04:18:53.010Z,99.90
2023-05-17T04:23:13.645Z,99.90
2023-05-17T04:27:33.185Z,99.90
2023-05-17T04:31:51.728Z,98.10
2023-05-17T04:36:12.205Z,94.80
2023-05-17T04:40:32.058Z,90.50
2023-05-17T04:44:51.494Z,83.70
2023-05-17T04:49:09.642Z,78.30
2023-05-17T04:53:27.553Z,73.90
2023-05-17T04:57:47.251Z,70.60
2023-05-17T05:02:07.750Z,68.50
2023-05-17T05:06:27.764Z,67.80
2023-05-17T05:10:46.057Z,66.50
2023-05-17T05:15:09.891Z,65.20
2023-05-17T05:19:31.826Z,63.30
2023-05-17T05:23:52.323Z,61.00
2023-05-17T05:28:11.213Z,59.30
2023-05-17T05:32:33.267Z,57.60
2023-05-17T05:36:52.803Z,55.70
2023-05-17T05:41:10.629Z,54.40
2023-05-17T05:45:29.346Z,53.60
2023-05-17T05:49:54.457Z,52.50
2023-05-17T05:54:14.707Z,51.00
2023-05-17T05:58:32.823Z,51.90
2023-05-17T06:02:54.618Z,52.90
2023-05-17T06:07:16.964Z,52.60
2023-05-17T06:11:35.594Z,53.00
2023-05-17T06:15:53.865Z,53.50
2023-05-17T06:20:12.557Z,53.50
2023-05-17T06:24:34.303Z,52.70
2023-05-17T06:28:54.318Z,51.90
2023-05-17T06:33:12.237Z,50.70
2023-05-17T06:37:30.019Z,50.30
2023-05-17T06:41:52.250Z,47.80
2023-05-17T06:46:12.329Z,46.40
2023-05-17T06:50:32.076Z,45.50
2023-05-17T06:54:51.570Z,45.30
2023-05-17T06:59:11.266Z,45.30
2023-05-17T07:03:30.809Z,44.00
2023-05-17T07:07:48.840Z,43.30
2023-05-17T07:12:11.068Z,42.10
2023-05-17T07:16:32.395Z,41.20
2023-05-17T07:20:53.094Z,41.30
2023-05-17T07:25:15.205Z,42.10
2023-05-17T07:29:34.634Z,43.20
2023-05-17T07:33:54.090Z,44.70
2023-05-17T07:38:13.664Z,46.60
2023-05-17T07:42:31.637Z,47.40
2023-05-17T07:46:50.073Z,46.50
2023-05-17T07:51:09.131Z,46.50
2023-05-17T07:55:29.195Z,46.90
2023-05-17T07:59:47.149Z,47.00
2023-05-17T08:04:08.216Z,46.80
2023-05-17T08:08:27.499Z,47.00
2023-05-17T08:12:47.331Z,47.90
2023-05-17T08:17:05.368Z,48.00
2023-05-17T08:21:24.013Z,48.20
2023-05-17T08:25:43.189Z,48.30
2023-05-17T08:30:04.074Z,48.20
2023-05-17T08:34:23.672Z,48.50
2023-05-17T08:38:41.667Z,48.10
2023-05-17T08:43:02.206Z,47.90
2023-05-17T08:47:29.789Z,47.80
2023-05-17T08:51:50.793Z,48.20
2023-05-17T08:56:10.393Z,49.40
2023-05-17T09:00:33.515Z,51.00
2023-05-17T09:04:55.754Z,49.00
2023-05-17T09:09:16.491Z,45.90
2023-05-17T09:13:33.767Z,43.60
2023-05-17T09:17:56.864Z,42.10
2023-05-17T09:22:16.984Z,42.00
2023-05-17T09:26:41.680Z,43.30
2023-05-17T09:31:07.649Z,44.70
2023-05-17T09:35:31.697Z,45.60
2023-05-17T09:39:50.239Z,44.80
2023-05-17T09:44:11.046Z,42.60
2023-05-17T09:48:29.130Z,41.90
2023-05-17T09:52:48.525Z,41.30
2023-05-17T09:57:10.530Z,42.00
2023-05-17T10:01:30.854Z,39.60
2023-05-17T10:05:54.311Z,38.90
2023-05-17T10:10:18.150Z,37.60
2023-05-17T10:14:38.226Z,36.00
2023-05-17T10:18:57.464Z,34.80
2023-05-17T10:23:16.359Z,35.10
2023-05-17T10:27:37.689Z,35.70
2023-05-17T10:31:59.284Z,37.30
2023-05-17T10:36:19.384Z,37.20
2023-05-17T10:40:41.192Z,37.10
2023-05-17T10:45:04.132Z,37.60
2023-05-17T10:49:24.429Z,38.30
2023-05-17T10:54:11.905Z,39.10
2023-05-17T10:58:31.547Z,40.30
2023-05-17T11:02:51.516Z,38.50
2023-05-17T11:07:32.421Z,36.20
2023-05-17T11:12:07.187Z,35.00
2023-05-17T11:16:36.851Z,35.10
2023-05-17T11:21:09.401Z,35.50
2023-05-17T11:25:35.808Z,35.30
2023-05-17T11:29:56.011Z,35.60
2023-05-17T11:34:19.289Z,36.40
2023-05-17T11:38:38.367Z,37.00
2023-05-17T11:43:15.411Z,36.70
2023-05-17T11:47:35.191Z,37.00
2023-05-17T11:51:55.552Z,36.40
2023-05-17T11:56:16.909Z,36.00
2023-05-17T12:00:35.043Z,35.80
2023-05-17T12:04:53.257Z,36.30
2023-05-17T12:09:13.494Z,36.80
2023-05-17T12:13:35.750Z,37.00
2023-05-17T12:17:55.674Z,37.20
2023-05-17T12:22:14.715Z,38.10
2023-05-17T12:26:32.741Z,38.70
2023-05-17T12:30:57.844Z,39.20
2023-05-17T12:35:18.409Z,39.60
2023-05-17T12:39:36.109Z,40.00
2023-05-17T12:44:03.025Z,40.60
2023-05-17T12:48:36.817Z,40.50
2023-05-17T12:52:54.632Z,39.70
2023-05-17T12:57:16.055Z,39.80
2023-05-17T13:01:37.986Z,40.30
2023-05-17T13:06:04.108Z,40.60
2023-05-17T13:10:26.005Z,40.80
2023-05-17T13:14:46.110Z,41.60
2023-05-17T13:19:13.903Z,42.00
2023-05-17T13:23:43.243Z,42.00
2023-05-17T13:28:02.577Z,41.60
2023-05-17T13:32:22.869Z,41.30
2023-05-17T13:36:45.225Z,41.10
2023-05-17T13:41:09.190Z,41.70
2023-05-17T13:45:27.084Z,42.60
2023-05-17T13:50:21.049Z,42.40
2023-05-17T13:54:34.989Z,42.60
2023-05-17T13:58:59.010Z,42.80
2023-05-17T14:03:21.563Z,42.80
2023-05-17T14:07:41.641Z,43.50
2023-05-17T14:12:01.447Z,42.70
2023-05-17T14:16:23.505Z,42.60
2023-05-17T14:20:42.903Z,43.00
2023-05-17T14:25:00.775Z,43.10
2023-05-17T14:29:19.837Z,43.10
2023-05-17T14:33:41.390Z,42.40
2023-05-17T14:38:01.242Z,42.30
2023-05-17T14:42:19.176Z,42.20
2023-05-17T14:46:37.060Z,42.10
2023-05-17T14:50:57.014Z,42.60
2023-05-17T14:55:17.746Z,42.90
2023-05-17T14:59:37.967Z,42.60
2023-05-17T15:03:55.848Z,42.30
2023-05-17T15:08:15.195Z,42.50
2023-05-17T15:12:35.269Z,42.70
2023-05-17T15:16:53.798Z,42.50
2023-05-17T15:21:13.972Z,42.60
2023-05-17T15:25:33.297Z,42.50
2023-05-17T15:29:53.028Z,42.50
2023-05-17T15:34:11.260Z,42.00
2023-05-17T15:38:29.187Z,41.70
2023-05-17T15:42:48.966Z,42.00
2023-05-17T15:47:08.338Z,42.00
2023-05-17T15:51:26.360Z,42.00
2023-05-17T15:55:44.375Z,41.90
2023-05-17T16:00:04.411Z,42.00
2023-05-17T16:04:23.583Z,42.10
2023-05-17T16:08:42.219Z,42.00
2023-05-17T16:12:59.837Z,42.30
2023-05-17T16:17:19.186Z,42.80
2023-05-17T16:21:39.027Z,43.10
2023-05-17T16:25:57.140Z,43.10
2023-05-17T16:30:16.196Z,43.20
2023-05-17T16:34:37.562Z,43.10
2023-05-17T16:38:57.224Z,43.10
2023-05-17T16:43:16.197Z,43.10
2023-05-17T16:47:33.470Z,42.80
2023-05-17T16:51:55.939Z,43.00
2023-05-17T16:56:15.639Z,43.00
2023-05-17T17:00:33.734Z,43.10
2023-05-17T17:04:51.790Z,44.10
2023-05-17T17:09:12.618Z,43.40
2023-05-17T17:13:31.408Z,44.20
2023-05-17T17:17:49.480Z,43.60
2023-05-17T17:22:07.042Z,43.80
2023-05-17T17:26:26.582Z,44.10
2023-05-17T17:30:47.492Z,44.10
2023-05-17T17:35:08.530Z,44.10
2023-05-17T17:39:28.415Z,44.10
2023-05-17T17:43:49.328Z,44.20
2023-05-17T17:48:07.693Z,44.20
2023-05-17T17:52:25.615Z,44.40
2023-05-17T17:56:43.798Z,44.60
2023-05-17T18:01:03.221Z,44.80
2023-05-17T18:05:23.121Z,44.80
2023-05-17T18:09:41.023Z,45.10
2023-05-17T18:13:59.113Z,45.10
2023-05-17T18:18:18.527Z,45.30
2023-05-17T18:22:38.178Z,45.60
2023-05-17T18:26:56.235Z,45.90
2023-05-17T18:31:15.114Z,46.10
2023-05-17T18:35:34.117Z,46.40
2023-05-17T18:39:54.135Z,46.70
2023-05-17T18:44:13.177Z,46.90
2023-05-17T18:48:36.165Z,47.20
2023-05-17T18:52:57.170Z,47.60
2023-05-17T18:57:15.271Z,47.90
2023-05-17T19:01:33.459Z,48.30
2023-05-17T19:05:51.069Z,48.60
2023-05-17T19:10:11.677Z,48.80
2023-05-17T19:14:32.034Z,49.10
2023-05-17T19:18:51.537Z,49.40
2023-05-17T19:23:09.327Z,49.70
2023-05-17T19:27:29.621Z,50.00
2023-05-17T19:31:48.791Z,50.50
2023-05-17T19:36:06.604Z,50.80
2023-05-17T19:40:24.886Z,51.20
2023-05-17T19:44:44.147Z,51.60
2023-05-17T19:49:04.712Z,51.90
2023-05-17T19:53:22.651Z,52.10
2023-05-17T19:57:40.001Z,52.60
2023-05-17T20:01:59.499Z,53.20
2023-05-17T20:06:19.216Z,53.40
2023-05-17T20:10:37.668Z,53.80
2023-05-17T20:14:55.595Z,54.20
2023-05-17T20:19:15.445Z,54.30
2023-05-17T20:23:34.539Z,54.70
2023-05-17T20:27:52.597Z,54.90
2023-05-17T20:32:10.571Z,55.00
2023-05-17T20:36:31.428Z,55.00
2023-05-17T20:40:51.622Z,55.20
2023-05-17T20:45:13.849Z,55.50
2023-05-17T20:49:32.001Z,55.50
2023-05-17T20:53:51.512Z,55.70
2023-05-17T20:58:11.358Z,56.00
2023-05-17T21:02:29.211Z,56.20
2023-05-17T21:06:47.195Z,56.40
2023-05-17T21:11:06.722Z,56.60
2023-05-17T21:15:26.660Z,57.20
2023-05-17T21:19:44.592Z,57.00
2023-05-17T21:24:02.639Z,57.10
2023-05-17T21:28:22.237Z,57.30
2023-05-17T21:32:42.610Z,57.40
2023-05-17T21:37:00.187Z,57.40
2023-05-17T21:41:17.926Z,57.50
2023-05-17T21:45:37.544Z,57.60
2023-05-17T21:49:56.977Z,57.60
2023-05-17T21:54:15.092Z,57.60
2023-05-17T21:58:33.450Z,57.70
2023-05-17T22:02:52.736Z,57.90
2023-05-17T22:07:13.350Z,57.90
2023-05-17T22:11:30.797Z,57.90
2023-05-17T22:15:48.892Z,58.00
2023-05-17T22:20:11.621Z,58.10
2023-05-17T22:24:30.861Z,58.30
2023-05-17T22:28:48.703Z,58.30
2023-05-17T22:33:06.820Z,58.40
2023-05-17T22:37:26.514Z,58.60
2023-05-17T22:41:46.077Z,58.80
2023-05-17T22:46:04.256Z,58.90
2023-05-17T22:50:24.499Z,59.00
2023-05-17T22:54:44.646Z,59.20
2023-05-17T22:59:07.130Z,59.40
2023-05-17T23:03:25.687Z,59.60
2023-05-17T23:07:43.510Z,59.90
2023-05-17T23:12:05.756Z,60.00
2023-05-17T23:16:28.245Z,60.20
2023-05-17T23:20:49.675Z,60.40
2023-05-17T23:25:08.565Z,60.40
2023-05-17T23:29:27.533Z,60.70
2023-05-17T23:33:47.379Z,61.20
2023-05-17T23:38:07.197Z,61.50
2023-05-17T23:42:29.166Z,61.90
2023-05-17T23:46:49.032Z,62.30
2023-05-17T23:51:09.014Z,62.70
2023-05-17T23:55:26.851Z,62.90
2023-05-17T23:59:44.986Z,63.20
